Аэропорт: Нижневартовск. Нижневартовск

ICAO: USNN

METAR:
2019/01/21 23:00
USNN 212300Z 21003MPS CAVOK M18/M19 Q1013 R21/39//32 NOSIG RMK QFE755
METAR:
2019/01/21 21:21
TAF USNN 212000Z 2121/2221 25005G10MPS 9999 BKN007 SCT020CB 
      TEMPO 2121/2124 BKN004 
      BECMG 2202/2203 20006MPS